createdAt,value
2023-04-04T00:03:43.892Z,10.49
2023-04-04T00:07:56.458Z,10.60
2023-04-04T00:12:08.964Z,10.48
2023-04-04T00:16:22.668Z,10.48
2023-04-04T00:20:35.141Z,10.42
2023-04-04T00:24:47.586Z,10.34
2023-04-04T00:29:00.124Z,10.29
2023-04-04T00:33:12.793Z,10.26
2023-04-04T00:37:25.316Z,10.23
2023-04-04T00:41:39.973Z,10.20
2023-04-04T00:45:52.740Z,10.13
2023-04-04T00:50:06.317Z,10.09
2023-04-04T00:54:18.906Z,10.03
2023-04-04T00:58:31.862Z,10.07
2023-04-04T01:02:44.502Z,10.06
2023-04-04T01:06:57.444Z,10.02
2023-04-04T01:11:10.956Z,10.07
2023-04-04T01:15:23.888Z,10.04
2023-04-04T01:19:43.885Z,10.06
2023-04-04T01:24:03.391Z,10.03
2023-04-04T01:28:23.613Z,10.09
2023-04-04T01:32:52.065Z,10.06
2023-04-04T01:37:11.917Z,10.02
2023-04-04T01:41:25.709Z,9.93
2023-04-04T01:45:42.844Z,9.98
2023-04-04T01:49:57.897Z,9.97
2023-04-04T01:54:11.109Z,9.91
2023-04-04T01:58:23.633Z,9.91
2023-04-04T02:02:36.327Z,9.93
2023-04-04T02:06:48.722Z,9.92
2023-04-04T02:11:01.787Z,9.91
2023-04-04T02:15:14.456Z,9.81
2023-04-04T02:19:28.009Z,9.76
2023-04-04T02:23:40.614Z,9.75
2023-04-04T02:27:53.124Z,9.70
2023-04-04T02:32:06.148Z,9.64
2023-04-04T02:36:18.686Z,9.61
2023-04-04T02:40:32.823Z,9.54
2023-04-04T02:44:45.215Z,9.60
2023-04-04T02:49:02.284Z,9.51
2023-04-04T02:53:16.040Z,9.52
2023-04-04T02:57:29.987Z,9.49
2023-04-04T03:01:42.788Z,9.43
2023-04-04T03:05:55.294Z,9.46
2023-04-04T03:10:08.145Z,9.38
2023-04-04T03:14:20.992Z,9.37
2023-04-04T03:18:34.958Z,9.40
2023-04-04T03:22:47.434Z,9.43
2023-04-04T03:27:01.849Z,9.28
2023-04-04T03:31:14.416Z,9.26
2023-04-04T03:35:28.156Z,9.32
2023-04-04T03:39:41.044Z,9.33
2023-04-04T03:43:53.768Z,9.26
2023-04-04T03:48:06.464Z,9.32
2023-04-04T03:52:19.124Z,9.33
2023-04-04T03:56:34.490Z,9.26
2023-04-04T04:00:50.409Z,9.13
2023-04-04T04:05:04.111Z,9.10
2023-04-04T04:09:16.566Z,9.00
2023-04-04T04:13:29.690Z,8.96
2023-04-04T04:17:42.384Z,8.85
2023-04-04T04:21:57.197Z,8.78
2023-04-04T04:26:09.820Z,8.79
2023-04-04T04:30:22.311Z,8.88
2023-04-04T04:34:34.897Z,8.71
2023-04-04T04:38:48.224Z,8.78
2023-04-04T04:43:01.733Z,8.80
2023-04-04T04:47:14.231Z,8.84
2023-04-04T04:51:27.698Z,8.93
2023-04-04T04:55:45.055Z,9.01
2023-04-04T04:59:57.436Z,9.13
2023-04-04T05:04:12.464Z,9.20
2023-04-04T05:08:34.461Z,9.19
2023-04-04T05:13:00.605Z,9.35
2023-04-04T05:17:18.370Z,9.50
2023-04-04T05:21:31.213Z,9.86
2023-04-04T05:25:45.376Z,10.18
2023-04-04T05:29:58.565Z,10.47
2023-04-04T05:34:18.748Z,10.67
2023-04-04T05:38:33.476Z,10.84
2023-04-04T05:42:55.124Z,10.62
2023-04-04T05:47:09.554Z,10.79
2023-04-04T05:51:25.119Z,10.66
2023-04-04T05:55:45.025Z,10.72
2023-04-04T05:59:57.770Z,10.62
2023-04-04T06:04:10.346Z,10.96
2023-04-04T06:08:23.095Z,11.18
2023-04-04T06:12:35.755Z,11.41
2023-04-04T06:16:52.613Z,11.34
2023-04-04T06:21:05.096Z,11.35
2023-04-04T06:25:18.371Z,11.21
2023-04-04T06:29:32.460Z,10.69
2023-04-04T06:33:46.627Z,10.50
2023-04-04T06:38:00.164Z,10.37
2023-04-04T06:42:14.235Z,10.52
2023-04-04T06:46:33.528Z,11.18
2023-04-04T06:50:46.480Z,11.20
2023-04-04T06:55:01.454Z,11.04
2023-04-04T06:59:15.492Z,11.57
2023-04-04T07:03:28.097Z,12.48
2023-04-04T07:07:40.487Z,13.51
2023-04-04T07:11:52.838Z,13.26
2023-04-04T07:16:06.410Z,13.78
2023-04-04T07:20:18.919Z,13.89
2023-04-04T07:24:31.407Z,13.54
2023-04-04T07:28:43.860Z,13.65
2023-04-04T07:33:03.450Z,14.21
2023-04-04T07:37:16.101Z,14.33
2023-04-04T07:41:28.576Z,13.94
2023-04-04T07:45:41.243Z,14.27
2023-04-04T07:49:53.751Z,14.42
2023-04-04T07:54:06.402Z,14.85
2023-04-04T07:58:18.830Z,15.13
2023-04-04T08:02:31.973Z,15.04
2023-04-04T08:06:44.480Z,14.97
2023-04-04T08:10:57.898Z,15.28
2023-04-04T08:15:11.162Z,15.84
2023-04-04T08:19:24.013Z,15.43
2023-04-04T08:23:36.648Z,14.68
2023-04-04T08:27:49.143Z,14.65
2023-04-04T08:32:01.647Z,14.66
2023-04-04T08:36:14.098Z,14.43
2023-04-04T08:40:26.611Z,13.89
2023-04-04T08:44:42.363Z,13.93
2023-04-04T08:48:57.576Z,13.86
2023-04-04T08:53:12.091Z,13.94
2023-04-04T08:57:24.708Z,13.88
2023-04-04T09:01:37.775Z,14.35
2023-04-04T09:05:51.142Z,13.86
2023-04-04T09:10:04.428Z,13.71
2023-04-04T09:14:17.767Z,14.02
2023-04-04T09:18:32.671Z,14.37
2023-04-04T09:22:46.105Z,14.09
2023-04-04T09:26:58.635Z,14.81
2023-04-04T09:31:12.157Z,15.30
2023-04-04T09:35:24.785Z,15.11
2023-04-04T09:39:40.574Z,14.53
2023-04-04T09:43:53.312Z,15.03
2023-04-04T09:48:08.139Z,15.07
2023-04-04T09:52:21.796Z,15.01
2023-04-04T09:56:34.830Z,15.30
2023-04-04T10:00:48.862Z,14.33
2023-04-04T10:09:16.818Z,14.83
2023-04-04T10:13:36.009Z,14.02
2023-04-04T10:17:50.086Z,14.31
2023-04-04T10:22:02.862Z,14.23
2023-04-04T10:26:15.947Z,14.26
2023-04-04T10:30:28.396Z,15.00
2023-04-04T10:34:50.092Z,14.71
2023-04-04T10:39:29.256Z,13.83
2023-04-04T10:43:45.050Z,14.34
2023-04-04T10:47:57.772Z,15.02
2023-04-04T10:52:13.588Z,14.61
2023-04-04T10:56:26.606Z,14.91
2023-04-04T11:00:55.511Z,14.68
2023-04-04T11:05:23.078Z,15.09
2023-04-04T11:09:52.171Z,14.95
2023-04-04T11:14:05.776Z,14.79
2023-04-04T11:18:32.786Z,15.07
2023-04-04T11:22:46.240Z,14.79
2023-04-04T11:26:58.836Z,14.57
2023-04-04T11:31:20.984Z,15.06
2023-04-04T11:35:33.397Z,14.81
2023-04-04T11:39:57.600Z,14.41
2023-04-04T11:44:10.924Z,14.83
2023-04-04T11:48:24.012Z,14.14
2023-04-04T11:52:36.624Z,14.83
2023-04-04T11:56:49.390Z,14.16
2023-04-04T12:01:01.920Z,13.61
2023-04-04T12:05:14.869Z,13.63
2023-04-04T12:09:27.448Z,13.19
2023-04-04T12:13:44.939Z,13.50
2023-04-04T12:17:57.814Z,13.48
2023-04-04T12:22:10.445Z,12.90
2023-04-04T12:26:23.000Z,12.35
2023-04-04T12:30:35.813Z,12.35
2023-04-04T12:34:49.961Z,12.58
2023-04-04T12:39:07.853Z,12.08
2023-04-04T12:43:21.090Z,11.73
2023-04-04T12:47:34.432Z,11.28
2023-04-04T12:51:46.885Z,11.23
2023-04-04T12:56:05.172Z,11.30
2023-04-04T13:00:20.080Z,10.90
2023-04-04T13:04:33.595Z,10.56
2023-04-04T13:08:55.793Z,10.42
2023-04-04T13:13:08.224Z,10.42
2023-04-04T13:17:20.660Z,10.25
2023-04-04T13:21:33.267Z,9.99
2023-04-04T13:25:45.847Z,10.11
2023-04-04T13:29:58.260Z,10.12
2023-04-04T13:34:10.828Z,9.86
2023-04-04T13:38:25.240Z,9.84
2023-04-04T13:42:39.117Z,9.88
2023-04-04T13:46:51.596Z,10.21
2023-04-04T13:51:04.148Z,10.26
2023-04-04T13:55:17.167Z,10.35
2023-04-04T13:59:29.646Z,10.06
2023-04-04T14:03:42.410Z,10.19
2023-04-04T14:07:54.676Z,10.15
2023-04-04T14:12:07.566Z,10.31
2023-04-04T14:16:19.926Z,10.17
2023-04-04T14:20:33.421Z,9.96
2023-04-04T14:24:46.630Z,10.26
2023-04-04T14:28:58.977Z,9.77
2023-04-04T14:33:11.352Z,10.11
2023-04-04T14:37:24.331Z,10.23
2023-04-04T14:41:36.849Z,10.07
2023-04-04T14:45:49.276Z,9.89
2023-04-04T14:50:01.982Z,10.23
2023-04-04T14:54:14.218Z,10.05
2023-04-04T14:58:26.665Z,10.02
2023-04-04T15:02:39.015Z,10.11
2023-04-04T15:06:54.683Z,10.00
2023-04-04T15:11:07.551Z,9.81
2023-04-04T15:15:21.104Z,9.67
2023-04-04T15:19:34.935Z,9.59
2023-04-04T15:23:47.446Z,9.32
2023-04-04T15:28:01.409Z,9.31
2023-04-04T15:32:14.002Z,9.24
2023-04-04T15:36:28.861Z,9.32
2023-04-04T15:40:41.742Z,9.26
2023-04-04T15:58:41.814Z,9.09
2023-04-04T16:02:58.657Z,9.01
2023-04-04T16:07:11.146Z,8.92
2023-04-04T16:11:23.792Z,8.78
2023-04-04T16:15:36.181Z,8.87
2023-04-04T16:19:48.562Z,8.81
2023-04-04T16:24:01.134Z,8.82
2023-04-04T16:28:13.497Z,8.84
2023-04-04T16:32:26.121Z,8.76
2023-04-04T16:36:38.886Z,8.68
2023-04-04T16:40:51.261Z,8.61
2023-04-04T16:45:04.056Z,8.63
2023-04-04T16:49:16.721Z,8.61
2023-04-04T16:53:29.064Z,8.62
2023-04-04T16:57:42.293Z,8.46
2023-04-04T17:01:55.236Z,8.32
2023-04-04T17:06:08.039Z,8.27
2023-04-04T17:10:20.526Z,8.26
2023-04-04T17:14:33.783Z,8.22
2023-04-04T17:18:46.691Z,8.01
2023-04-04T17:22:59.228Z,8.02
2023-04-04T17:27:11.632Z,7.94
2023-04-04T17:31:24.196Z,7.83
2023-04-04T17:35:36.950Z,7.70
2023-04-04T17:39:49.549Z,7.56
2023-04-04T17:44:02.220Z,7.50
2023-04-04T17:48:14.820Z,7.35
2023-04-04T17:52:27.447Z,7.15
2023-04-04T17:56:39.833Z,7.05
2023-04-04T18:00:56.026Z,6.87
2023-04-04T18:05:10.400Z,6.69
2023-04-04T18:09:23.811Z,6.67
2023-04-04T18:13:36.506Z,6.68
2023-04-04T18:17:49.174Z,6.55
2023-04-04T18:22:01.857Z,6.45
2023-04-04T18:26:14.284Z,6.44
2023-04-04T18:30:27.973Z,6.31
2023-04-04T18:34:40.452Z,6.39
2023-04-04T18:38:52.925Z,6.43
2023-04-04T18:43:06.278Z,6.57
2023-04-04T18:47:18.731Z,6.46
2023-04-04T18:51:31.136Z,6.50
2023-04-04T18:55:43.463Z,6.82
2023-04-04T18:59:55.970Z,7.01
2023-04-04T19:04:09.039Z,7.27
2023-04-04T19:08:21.597Z,7.36
2023-04-04T19:12:34.722Z,7.39
2023-04-04T19:16:47.970Z,7.41
2023-04-04T19:21:00.503Z,7.48
2023-04-04T19:25:18.933Z,7.57
2023-04-04T19:29:32.348Z,7.59
2023-04-04T19:33:44.880Z,7.54
2023-04-04T19:37:57.329Z,7.66
2023-04-04T19:42:12.491Z,7.59
2023-04-04T19:46:29.743Z,7.55
2023-04-04T19:50:42.143Z,7.48
2023-04-04T19:54:54.535Z,7.50
2023-04-04T19:59:10.507Z,7.47
2023-04-04T20:03:34.569Z,7.41
2023-04-04T20:07:46.953Z,7.37
2023-04-04T20:11:59.269Z,7.33
2023-04-04T20:16:16.510Z,7.30
2023-04-04T20:20:53.202Z,7.20
2023-04-04T20:25:31.129Z,7.26
2023-04-04T20:29:44.004Z,7.11
2023-04-04T20:33:56.506Z,7.04
2023-04-04T20:38:08.892Z,7.09
2023-04-04T20:42:34.172Z,7.04
2023-04-04T20:46:47.834Z,6.95
2023-04-04T20:51:00.255Z,6.94
2023-04-04T20:55:13.079Z,6.98
2023-04-04T20:59:38.590Z,7.01
2023-04-04T21:03:52.215Z,6.95
2023-04-04T21:08:35.007Z,6.93
2023-04-04T21:12:47.439Z,6.97
2023-04-04T21:16:59.824Z,7.00
2023-04-04T21:21:19.508Z,7.15
2023-04-04T21:25:59.668Z,7.02
2023-04-04T21:30:43.129Z,7.05
2023-04-04T21:34:55.664Z,6.97
2023-04-04T21:39:16.285Z,7.06
2023-04-04T21:43:29.094Z,7.00
2023-04-04T21:47:41.474Z,6.97
2023-04-04T21:51:53.917Z,7.03
2023-04-04T21:56:06.427Z,6.98
2023-04-04T22:00:18.988Z,7.14
2023-04-04T22:04:31.433Z,7.18
2023-04-04T22:08:43.887Z,7.15
2023-04-04T22:12:59.675Z,7.16
2023-04-04T22:17:23.042Z,7.07
2023-04-04T22:21:37.346Z,7.00
2023-04-04T22:25:51.846Z,7.14
2023-04-04T22:30:06.246Z,7.04
2023-04-04T22:34:18.644Z,6.96
2023-04-04T22:38:31.340Z,6.94
2023-04-04T22:42:43.749Z,6.99
2023-04-04T22:46:58.756Z,7.13
2023-04-04T22:51:15.207Z,6.89
2023-04-04T22:55:28.248Z,6.90
2023-04-04T22:59:40.709Z,7.04
2023-04-04T23:03:53.113Z,6.96
2023-04-04T23:08:05.719Z,7.01
2023-04-04T23:12:18.172Z,7.04
2023-04-04T23:16:31.165Z,7.01
2023-04-04T23:20:43.919Z,7.05
2023-04-04T23:24:56.681Z,7.01
2023-04-04T23:29:10.117Z,7.02
2023-04-04T23:33:22.465Z,7.02
2023-04-04T23:37:35.980Z,7.03
2023-04-04T23:41:48.456Z,7.05
2023-04-04T23:46:00.829Z,6.96
2023-04-04T23:50:13.345Z,6.90
2023-04-04T23:54:25.916Z,6.95
2023-04-04T23:58:39.109Z,6.91
